sensor_id;sensor_type;location;lat;lon;timestamp;P1;durP1;ratioP1;P2;durP2;ratioP2
23716;SDS011;22094;52.130;5.598;2023-02-15T00:00:53;93.47;;;44.17;;
23716;SDS011;22094;52.130;5.598;2023-02-15T00:03:21;94.80;;;44.47;;
23716;SDS011;22094;52.130;5.598;2023-02-15T00:05:47;96.60;;;44.78;;
23716;SDS011;22094;52.130;5.598;2023-02-15T00:08:13;90.25;;;43.55;;
23716;SDS011;22094;52.130;5.598;2023-02-15T00:10:38;97.95;;;44.80;;
23716;SDS011;22094;52.130;5.598;2023-02-15T00:13:04;104.28;;;45.83;;
23716;SDS011;22094;52.130;5.598;2023-02-15T00:15:29;88.05;;;42.33;;
23716;SDS011;22094;52.130;5.598;2023-02-15T00:17:56;93.20;;;45.00;;
23716;SDS011;22094;52.130;5.598;2023-02-15T00:20:22;94.32;;;43.55;;
23716;SDS011;22094;52.130;5.598;2023-02-15T00:22:47;94.38;;;44.47;;
23716;SDS011;22094;52.130;5.598;2023-02-15T00:25:13;94.90;;;44.10;;
23716;SDS011;22094;52.130;5.598;2023-02-15T00:27:39;97.45;;;42.30;;
23716;SDS011;22094;52.130;5.598;2023-02-15T00:30:04;95.18;;;42.75;;
23716;SDS011;22094;52.130;5.598;2023-02-15T00:32:30;86.20;;;40.95;;
23716;SDS011;22094;52.130;5.598;2023-02-15T00:34:56;96.57;;;43.20;;
23716;SDS011;22094;52.130;5.598;2023-02-15T00:37:22;87.07;;;41.13;;
23716;SDS011;22094;52.130;5.598;2023-02-15T00:39:47;82.65;;;41.25;;
23716;SDS011;22094;52.130;5.598;2023-02-15T00:42:13;86.72;;;39.33;;
23716;SDS011;22094;52.130;5.598;2023-02-15T00:44:38;87.78;;;41.17;;
23716;SDS011;22094;52.130;5.598;2023-02-15T00:47:04;83.97;;;39.13;;
23716;SDS011;22094;52.130;5.598;2023-02-15T00:49:29;85.85;;;39.67;;
23716;SDS011;22094;52.130;5.598;2023-02-15T00:51:55;91.22;;;41.40;;
23716;SDS011;22094;52.130;5.598;2023-02-15T00:54:21;82.68;;;39.30;;
23716;SDS011;22094;52.130;5.598;2023-02-15T00:56:46;83.85;;;40.38;;
23716;SDS011;22094;52.130;5.598;2023-02-15T00:59:12;90.70;;;40.13;;
23716;SDS011;22094;52.130;5.598;2023-02-15T01:01:37;82.72;;;39.25;;
23716;SDS011;22094;52.130;5.598;2023-02-15T01:04:03;86.03;;;40.20;;
23716;SDS011;22094;52.130;5.598;2023-02-15T01:06:29;83.93;;;39.95;;
23716;SDS011;22094;52.130;5.598;2023-02-15T01:08:54;81.30;;;38.40;;
23716;SDS011;22094;52.130;5.598;2023-02-15T01:11:21;86.35;;;39.05;;
23716;SDS011;22094;52.130;5.598;2023-02-15T01:13:50;82.88;;;38.60;;
23716;SDS011;22094;52.130;5.598;2023-02-15T01:16:17;83.55;;;38.85;;
23716;SDS011;22094;52.130;5.598;2023-02-15T01:18:42;92.55;;;40.40;;
23716;SDS011;22094;52.130;5.598;2023-02-15T01:21:12;86.47;;;38.75;;
23716;SDS011;22094;52.130;5.598;2023-02-15T01:23:41;86.43;;;39.28;;
23716;SDS011;22094;52.130;5.598;2023-02-15T01:26:07;86.68;;;40.13;;
23716;SDS011;22094;52.130;5.598;2023-02-15T01:28:33;84.68;;;38.47;;
23716;SDS011;22094;52.130;5.598;2023-02-15T01:30:59;85.53;;;38.38;;
23716;SDS011;22094;52.130;5.598;2023-02-15T01:33:28;95.68;;;41.17;;
23716;SDS011;22094;52.130;5.598;2023-02-15T01:35:57;87.32;;;40.15;;
23716;SDS011;22094;52.130;5.598;2023-02-15T01:38:23;90.75;;;38.58;;
23716;SDS011;22094;52.130;5.598;2023-02-15T01:40:52;110.47;;;42.70;;
23716;SDS011;22094;52.130;5.598;2023-02-15T01:43:18;109.00;;;42.83;;
23716;SDS011;22094;52.130;5.598;2023-02-15T01:45:45;97.22;;;41.15;;
23716;SDS011;22094;52.130;5.598;2023-02-15T01:48:20;98.13;;;42.03;;
23716;SDS011;22094;52.130;5.598;2023-02-15T01:50:52;94.05;;;39.38;;
23716;SDS011;22094;52.130;5.598;2023-02-15T01:53:29;91.30;;;40.60;;
23716;SDS011;22094;52.130;5.598;2023-02-15T01:56:20;97.55;;;40.47;;
23716;SDS011;22094;52.130;5.598;2023-02-15T01:58:49;89.68;;;38.47;;
23716;SDS011;22094;52.130;5.598;2023-02-15T02:01:17;86.45;;;37.65;;
23716;SDS011;22094;52.130;5.598;2023-02-15T02:06:36;91.55;;;37.58;;
23716;SDS011;22094;52.130;5.598;2023-02-15T02:09:04;84.03;;;36.30;;
23716;SDS011;22094;52.130;5.598;2023-02-15T02:11:29;85.32;;;38.03;;
23716;SDS011;22094;52.130;5.598;2023-02-15T02:13:55;90.43;;;38.72;;
23716;SDS011;22094;52.130;5.598;2023-02-15T02:16:28;91.90;;;38.35;;
23716;SDS011;22094;52.130;5.598;2023-02-15T02:41:30;81.25;;;36.22;;
23716;SDS011;22094;52.130;5.598;2023-02-15T02:46:49;77.95;;;35.28;;
23716;SDS011;22094;52.130;5.598;2023-02-15T02:49:15;89.55;;;38.03;;
23716;SDS011;22094;52.130;5.598;2023-02-15T02:51:41;88.55;;;36.13;;
23716;SDS011;22094;52.130;5.598;2023-02-15T02:54:07;83.10;;;36.13;;
23716;SDS011;22094;52.130;5.598;2023-02-15T02:56:41;78.45;;;36.53;;
23716;SDS011;22094;52.130;5.598;2023-02-15T02:59:13;79.28;;;35.70;;
23716;SDS011;22094;52.130;5.598;2023-02-15T03:02:05;80.05;;;35.30;;
23716;SDS011;22094;52.130;5.598;2023-02-15T03:04:39;81.18;;;34.92;;
23716;SDS011;22094;52.130;5.598;2023-02-15T03:07:14;79.38;;;34.67;;
23716;SDS011;22094;52.130;5.598;2023-02-15T03:09:47;79.45;;;34.60;;
23716;SDS011;22094;52.130;5.598;2023-02-15T03:12:17;87.38;;;37.47;;
23716;SDS011;22094;52.130;5.598;2023-02-15T03:14:47;83.43;;;35.65;;
23716;SDS011;22094;52.130;5.598;2023-02-15T03:17:16;81.45;;;35.42;;
23716;SDS011;22094;52.130;5.598;2023-02-15T03:19:44;77.43;;;34.13;;
23716;SDS011;22094;52.130;5.598;2023-02-15T03:25:07;86.03;;;36.03;;
23716;SDS011;22094;52.130;5.598;2023-02-15T03:27:38;87.25;;;35.78;;
23716;SDS011;22094;52.130;5.598;2023-02-15T03:30:06;80.03;;;35.45;;
23716;SDS011;22094;52.130;5.598;2023-02-15T03:32:35;77.47;;;33.33;;
23716;SDS011;22094;52.130;5.598;2023-02-15T03:35:03;80.63;;;34.53;;
23716;SDS011;22094;52.130;5.598;2023-02-15T03:37:35;84.13;;;34.83;;
23716;SDS011;22094;52.130;5.598;2023-02-15T03:40:23;76.53;;;33.92;;
23716;SDS011;22094;52.130;5.598;2023-02-15T03:43:21;80.63;;;32.60;;
23716;SDS011;22094;52.130;5.598;2023-02-15T03:45:49;82.55;;;33.70;;
23716;SDS011;22094;52.130;5.598;2023-02-15T03:48:25;76.85;;;32.80;;
23716;SDS011;22094;52.130;5.598;2023-02-15T03:50:55;78.15;;;32.78;;
23716;SDS011;22094;52.130;5.598;2023-02-15T03:53:43;73.03;;;32.47;;
23716;SDS011;22094;52.130;5.598;2023-02-15T03:56:12;75.20;;;33.08;;
23716;SDS011;22094;52.130;5.598;2023-02-15T03:58:38;76.70;;;34.20;;
23716;SDS011;22094;52.130;5.598;2023-02-15T04:01:26;80.05;;;34.67;;
23716;SDS011;22094;52.130;5.598;2023-02-15T04:04:26;74.22;;;32.03;;
23716;SDS011;22094;52.130;5.598;2023-02-15T04:06:57;81.05;;;34.15;;
23716;SDS011;22094;52.130;5.598;2023-02-15T04:09:23;76.07;;;33.97;;
23716;SDS011;22094;52.130;5.598;2023-02-15T04:12:10;74.03;;;34.22;;
23716;SDS011;22094;52.130;5.598;2023-02-15T04:14:36;79.47;;;33.70;;
23716;SDS011;22094;52.130;5.598;2023-02-15T04:17:20;76.72;;;33.33;;
23716;SDS011;22094;52.130;5.598;2023-02-15T04:19:46;81.22;;;33.50;;
23716;SDS011;22094;52.130;5.598;2023-02-15T04:22:30;68.18;;;31.77;;
23716;SDS011;22094;52.130;5.598;2023-02-15T04:25:14;77.90;;;33.33;;
23716;SDS011;22094;52.130;5.598;2023-02-15T04:27:42;75.95;;;34.15;;
23716;SDS011;22094;52.130;5.598;2023-02-15T04:30:19;86.15;;;35.60;;
23716;SDS011;22094;52.130;5.598;2023-02-15T04:32:49;86.22;;;35.00;;
23716;SDS011;22094;52.130;5.598;2023-02-15T04:35:15;92.40;;;34.47;;
23716;SDS011;22094;52.130;5.598;2023-02-15T04:37:41;82.68;;;34.85;;
23716;SDS011;22094;52.130;5.598;2023-02-15T04:40:08;88.80;;;35.80;;
23716;SDS011;22094;52.130;5.598;2023-02-15T04:42:35;72.72;;;34.22;;
23716;SDS011;22094;52.130;5.598;2023-02-15T04:45:01;92.63;;;36.75;;
23716;SDS011;22094;52.130;5.598;2023-02-15T04:47:27;85.40;;;35.90;;
23716;SDS011;22094;52.130;5.598;2023-02-15T04:49:52;91.75;;;36.88;;
23716;SDS011;22094;52.130;5.598;2023-02-15T04:52:18;83.25;;;35.13;;
23716;SDS011;22094;52.130;5.598;2023-02-15T04:54:44;83.40;;;35.10;;
23716;SDS011;22094;52.130;5.598;2023-02-15T04:57:09;81.03;;;34.95;;
23716;SDS011;22094;52.130;5.598;2023-02-15T04:59:35;84.28;;;36.25;;
23716;SDS011;22094;52.130;5.598;2023-02-15T05:02:00;79.60;;;34.95;;
23716;SDS011;22094;52.130;5.598;2023-02-15T05:04:26;73.55;;;34.65;;
23716;SDS011;22094;52.130;5.598;2023-02-15T05:06:52;88.53;;;35.50;;
23716;SDS011;22094;52.130;5.598;2023-02-15T05:09:17;86.90;;;35.38;;
23716;SDS011;22094;52.130;5.598;2023-02-15T05:11:43;88.10;;;36.65;;
23716;SDS011;22094;52.130;5.598;2023-02-15T05:14:08;82.97;;;35.17;;
23716;SDS011;22094;52.130;5.598;2023-02-15T05:16:34;79.93;;;34.40;;
23716;SDS011;22094;52.130;5.598;2023-02-15T05:19:00;78.50;;;33.90;;
23716;SDS011;22094;52.130;5.598;2023-02-15T05:21:25;74.80;;;34.00;;
23716;SDS011;22094;52.130;5.598;2023-02-15T05:23:51;79.55;;;34.35;;
23716;SDS011;22094;52.130;5.598;2023-02-15T05:26:18;80.70;;;35.00;;
23716;SDS011;22094;52.130;5.598;2023-02-15T05:29:04;76.88;;;33.33;;
23716;SDS011;22094;52.130;5.598;2023-02-15T05:31:30;71.95;;;32.72;;
23716;SDS011;22094;52.130;5.598;2023-02-15T05:33:56;75.07;;;33.90;;
23716;SDS011;22094;52.130;5.598;2023-02-15T05:36:22;85.90;;;34.58;;
23716;SDS011;22094;52.130;5.598;2023-02-15T05:38:47;76.75;;;34.75;;
23716;SDS011;22094;52.130;5.598;2023-02-15T05:41:13;81.68;;;36.13;;
23716;SDS011;22094;52.130;5.598;2023-02-15T05:43:39;70.60;;;32.92;;
23716;SDS011;22094;52.130;5.598;2023-02-15T05:46:05;84.75;;;35.40;;
23716;SDS011;22094;52.130;5.598;2023-02-15T05:48:32;82.82;;;34.05;;
23716;SDS011;22094;52.130;5.598;2023-02-15T05:50:58;82.55;;;35.05;;
23716;SDS011;22094;52.130;5.598;2023-02-15T05:53:27;72.93;;;34.17;;
23716;SDS011;22094;52.130;5.598;2023-02-15T05:55:54;73.05;;;32.65;;
23716;SDS011;22094;52.130;5.598;2023-02-15T05:58:24;72.35;;;33.30;;
23716;SDS011;22094;52.130;5.598;2023-02-15T06:00:53;75.45;;;32.67;;
23716;SDS011;22094;52.130;5.598;2023-02-15T06:03:19;69.68;;;33.33;;
23716;SDS011;22094;52.130;5.598;2023-02-15T06:05:45;72.70;;;33.17;;
23716;SDS011;22094;52.130;5.598;2023-02-15T06:08:10;70.63;;;32.33;;
23716;SDS011;22094;52.130;5.598;2023-02-15T06:10:36;78.13;;;34.83;;
23716;SDS011;22094;52.130;5.598;2023-02-15T06:13:01;77.93;;;36.17;;
23716;SDS011;22094;52.130;5.598;2023-02-15T06:15:27;86.72;;;36.78;;
23716;SDS011;22094;52.130;5.598;2023-02-15T06:17:52;90.15;;;38.15;;
23716;SDS011;22094;52.130;5.598;2023-02-15T06:20:18;83.68;;;39.58;;
23716;SDS011;22094;52.130;5.598;2023-02-15T06:22:44;82.70;;;38.22;;
23716;SDS011;22094;52.130;5.598;2023-02-15T06:25:09;84.88;;;36.97;;
23716;SDS011;22094;52.130;5.598;2023-02-15T06:27:36;90.10;;;37.53;;
23716;SDS011;22094;52.130;5.598;2023-02-15T06:30:03;83.10;;;37.15;;
23716;SDS011;22094;52.130;5.598;2023-02-15T06:32:31;79.82;;;36.53;;
23716;SDS011;22094;52.130;5.598;2023-02-15T06:34:57;89.15;;;36.92;;
23716;SDS011;22094;52.130;5.598;2023-02-15T06:37:22;81.50;;;36.85;;
23716;SDS011;22094;52.130;5.598;2023-02-15T06:39:48;78.40;;;36.45;;
23716;SDS011;22094;52.130;5.598;2023-02-15T06:42:13;75.07;;;35.35;;
23716;SDS011;22094;52.130;5.598;2023-02-15T06:44:42;76.75;;;35.08;;
23716;SDS011;22094;52.130;5.598;2023-02-15T06:47:07;82.75;;;36.85;;
23716;SDS011;22094;52.130;5.598;2023-02-15T06:49:33;79.18;;;34.95;;
23716;SDS011;22094;52.130;5.598;2023-02-15T06:51:59;87.15;;;37.13;;
23716;SDS011;22094;52.130;5.598;2023-02-15T06:54:24;81.05;;;36.78;;
23716;SDS011;22094;52.130;5.598;2023-02-15T06:56:50;79.63;;;35.63;;
23716;SDS011;22094;52.130;5.598;2023-02-15T06:59:15;78.63;;;35.83;;
23716;SDS011;22094;52.130;5.598;2023-02-15T07:01:41;86.13;;;37.95;;
23716;SDS011;22094;52.130;5.598;2023-02-15T07:04:07;80.22;;;37.70;;
23716;SDS011;22094;52.130;5.598;2023-02-15T07:06:33;86.82;;;37.75;;
23716;SDS011;22094;52.130;5.598;2023-02-15T07:08:59;89.35;;;38.60;;
23716;SDS011;22094;52.130;5.598;2023-02-15T07:11:24;83.35;;;38.42;;
23716;SDS011;22094;52.130;5.598;2023-02-15T07:14:09;98.53;;;42.95;;
23716;SDS011;22094;52.130;5.598;2023-02-15T07:16:35;94.88;;;43.55;;
23716;SDS011;22094;52.130;5.598;2023-02-15T07:19:00;118.38;;;47.65;;
23716;SDS011;22094;52.130;5.598;2023-02-15T07:21:26;110.47;;;48.03;;
23716;SDS011;22094;52.130;5.598;2023-02-15T07:23:55;112.88;;;47.33;;
23716;SDS011;22094;52.130;5.598;2023-02-15T07:26:22;113.47;;;49.00;;
23716;SDS011;22094;52.130;5.598;2023-02-15T07:28:48;114.72;;;48.10;;
23716;SDS011;22094;52.130;5.598;2023-02-15T07:31:14;120.35;;;49.75;;
23716;SDS011;22094;52.130;5.598;2023-02-15T07:33:39;110.80;;;49.10;;
23716;SDS011;22094;52.130;5.598;2023-02-15T07:36:05;117.03;;;49.30;;
23716;SDS011;22094;52.130;5.598;2023-02-15T07:38:32;106.88;;;47.55;;
23716;SDS011;22094;52.130;5.598;2023-02-15T07:41:04;118.72;;;50.88;;
23716;SDS011;22094;52.130;5.598;2023-02-15T07:43:32;139.45;;;53.75;;
23716;SDS011;22094;52.130;5.598;2023-02-15T07:46:00;121.72;;;51.22;;
23716;SDS011;22094;52.130;5.598;2023-02-15T07:48:26;123.45;;;53.25;;
23716;SDS011;22094;52.130;5.598;2023-02-15T07:50:52;134.85;;;54.40;;
23716;SDS011;22094;52.130;5.598;2023-02-15T07:53:18;127.78;;;53.92;;
23716;SDS011;22094;52.130;5.598;2023-02-15T07:55:44;116.40;;;52.45;;
23716;SDS011;22094;52.130;5.598;2023-02-15T07:58:09;131.40;;;55.05;;
23716;SDS011;22094;52.130;5.598;2023-02-15T08:00:35;125.57;;;53.22;;
23716;SDS011;22094;52.130;5.598;2023-02-15T08:03:24;137.52;;;55.65;;
23716;SDS011;22094;52.130;5.598;2023-02-15T08:05:57;125.45;;;54.67;;
23716;SDS011;22094;52.130;5.598;2023-02-15T08:08:24;140.98;;;57.38;;
23716;SDS011;22094;52.130;5.598;2023-02-15T08:11:01;134.60;;;56.33;;
23716;SDS011;22094;52.130;5.598;2023-02-15T08:13:48;142.23;;;60.35;;
23716;SDS011;22094;52.130;5.598;2023-02-15T08:19:13;134.77;;;62.95;;
23716;SDS011;22094;52.130;5.598;2023-02-15T08:21:42;147.95;;;66.18;;
23716;SDS011;22094;52.130;5.598;2023-02-15T08:24:10;150.73;;;68.53;;
23716;SDS011;22094;52.130;5.598;2023-02-15T08:26:37;143.88;;;69.68;;
23716;SDS011;22094;52.130;5.598;2023-02-15T08:29:03;144.80;;;67.72;;
23716;SDS011;22094;52.130;5.598;2023-02-15T08:31:30;153.68;;;73.05;;
23716;SDS011;22094;52.130;5.598;2023-02-15T08:33:56;150.00;;;71.93;;
23716;SDS011;22094;52.130;5.598;2023-02-15T08:36:23;146.25;;;72.22;;
23716;SDS011;22094;52.130;5.598;2023-02-15T08:38:50;144.77;;;72.50;;
23716;SDS011;22094;52.130;5.598;2023-02-15T08:41:26;139.43;;;71.03;;
23716;SDS011;22094;52.130;5.598;2023-02-15T08:43:55;149.38;;;79.32;;
23716;SDS011;22094;52.130;5.598;2023-02-15T08:46:22;145.07;;;75.70;;
23716;SDS011;22094;52.130;5.598;2023-02-15T08:48:50;148.13;;;75.28;;
23716;SDS011;22094;52.130;5.598;2023-02-15T08:51:17;130.63;;;72.40;;
23716;SDS011;22094;52.130;5.598;2023-02-15T08:53:45;124.18;;;69.03;;
23716;SDS011;22094;52.130;5.598;2023-02-15T08:56:14;127.97;;;67.72;;
23716;SDS011;22094;52.130;5.598;2023-02-15T08:58:40;121.45;;;63.75;;
23716;SDS011;22094;52.130;5.598;2023-02-15T09:01:15;110.20;;;60.78;;
23716;SDS011;22094;52.130;5.598;2023-02-15T09:03:43;103.45;;;56.33;;
23716;SDS011;22094;52.130;5.598;2023-02-15T09:06:10;99.32;;;53.03;;
23716;SDS011;22094;52.130;5.598;2023-02-15T09:08:36;103.03;;;55.55;;
23716;SDS011;22094;52.130;5.598;2023-02-15T09:11:12;91.20;;;51.08;;
23716;SDS011;22094;52.130;5.598;2023-02-15T09:13:41;86.38;;;49.33;;
23716;SDS011;22094;52.130;5.598;2023-02-15T09:16:08;81.95;;;48.25;;
23716;SDS011;22094;52.130;5.598;2023-02-15T09:18:37;80.68;;;46.25;;
23716;SDS011;22094;52.130;5.598;2023-02-15T09:21:07;84.60;;;45.95;;
23716;SDS011;22094;52.130;5.598;2023-02-15T09:23:35;74.28;;;42.30;;
23716;SDS011;22094;52.130;5.598;2023-02-15T09:26:02;70.93;;;41.65;;
23716;SDS011;22094;52.130;5.598;2023-02-15T09:28:29;68.20;;;38.83;;
23716;SDS011;22094;52.130;5.598;2023-02-15T09:30:57;67.88;;;40.58;;
23716;SDS011;22094;52.130;5.598;2023-02-15T09:33:40;66.20;;;39.30;;
23716;SDS011;22094;52.130;5.598;2023-02-15T09:36:14;67.25;;;37.90;;
23716;SDS011;22094;52.130;5.598;2023-02-15T09:38:41;65.70;;;38.15;;
23716;SDS011;22094;52.130;5.598;2023-02-15T09:41:17;69.25;;;39.58;;
23716;SDS011;22094;52.130;5.598;2023-02-15T10:00:55;59.63;;;37.33;;
23716;SDS011;22094;52.130;5.598;2023-02-15T10:03:50;56.30;;;34.60;;
23716;SDS011;22094;52.130;5.598;2023-02-15T10:15:23;54.85;;;33.60;;
23716;SDS011;22094;52.130;5.598;2023-02-15T10:25:32;56.50;;;32.55;;
23716;SDS011;22094;52.130;5.598;2023-02-15T10:28:05;55.80;;;33.60;;
23716;SDS011;22094;52.130;5.598;2023-02-15T10:30:42;51.78;;;32.10;;
23716;SDS011;22094;52.130;5.598;2023-02-15T10:33:16;54.00;;;32.47;;
23716;SDS011;22094;52.130;5.598;2023-02-15T10:46:13;49.35;;;31.05;;
23716;SDS011;22094;52.130;5.598;2023-02-15T10:51:30;51.60;;;31.35;;
23716;SDS011;22094;52.130;5.598;2023-02-15T10:54:09;48.88;;;31.40;;
23716;SDS011;22094;52.130;5.598;2023-02-15T11:01:43;53.00;;;31.95;;
23716;SDS011;22094;52.130;5.598;2023-02-15T11:07:27;49.92;;;31.30;;
23716;SDS011;22094;52.130;5.598;2023-02-15T11:12:43;47.17;;;30.33;;
23716;SDS011;22094;52.130;5.598;2023-02-15T11:15:27;52.50;;;31.02;;
23716;SDS011;22094;52.130;5.598;2023-02-15T11:18:02;47.22;;;30.35;;
23716;SDS011;22094;52.130;5.598;2023-02-15T11:20:32;48.67;;;31.08;;
23716;SDS011;22094;52.130;5.598;2023-02-15T11:23:02;46.47;;;29.95;;
23716;SDS011;22094;52.130;5.598;2023-02-15T11:25:32;54.47;;;32.10;;
23716;SDS011;22094;52.130;5.598;2023-02-15T11:27:59;49.53;;;30.67;;
23716;SDS011;22094;52.130;5.598;2023-02-15T11:30:33;49.53;;;31.42;;
23716;SDS011;22094;52.130;5.598;2023-02-15T11:33:12;48.00;;;29.88;;
23716;SDS011;22094;52.130;5.598;2023-02-15T11:35:48;49.10;;;29.83;;
23716;SDS011;22094;52.130;5.598;2023-02-15T11:38:21;48.50;;;30.35;;
23716;SDS011;22094;52.130;5.598;2023-02-15T11:45:48;50.60;;;30.63;;
23716;SDS011;22094;52.130;5.598;2023-02-15T11:48:14;41.45;;;28.63;;
23716;SDS011;22094;52.130;5.598;2023-02-15T11:50:41;44.92;;;29.33;;
23716;SDS011;22094;52.130;5.598;2023-02-15T11:53:18;49.25;;;29.70;;
23716;SDS011;22094;52.130;5.598;2023-02-15T11:55:52;49.90;;;31.08;;
23716;SDS011;22094;52.130;5.598;2023-02-15T12:01:11;48.60;;;29.05;;
23716;SDS011;22094;52.130;5.598;2023-02-15T12:03:53;47.17;;;29.90;;
23716;SDS011;22094;52.130;5.598;2023-02-15T12:06:32;44.10;;;29.13;;
23716;SDS011;22094;52.130;5.598;2023-02-15T12:11:26;46.78;;;30.48;;
23716;SDS011;22094;52.130;5.598;2023-02-15T12:13:58;46.80;;;29.95;;
23716;SDS011;22094;52.130;5.598;2023-02-15T12:16:26;45.13;;;29.90;;
23716;SDS011;22094;52.130;5.598;2023-02-15T12:18:55;47.30;;;29.58;;
23716;SDS011;22094;52.130;5.598;2023-02-15T12:21:32;45.80;;;30.10;;
23716;SDS011;22094;52.130;5.598;2023-02-15T12:24:13;46.22;;;29.55;;
23716;SDS011;22094;52.130;5.598;2023-02-15T12:26:42;50.90;;;30.75;;
23716;SDS011;22094;52.130;5.598;2023-02-15T12:29:17;44.10;;;28.95;;
23716;SDS011;22094;52.130;5.598;2023-02-15T12:31:49;47.97;;;29.88;;
23716;SDS011;22094;52.130;5.598;2023-02-15T12:34:21;41.78;;;27.90;;
23716;SDS011;22094;52.130;5.598;2023-02-15T12:36:53;45.78;;;29.67;;
23716;SDS011;22094;52.130;5.598;2023-02-15T12:39:26;47.25;;;29.58;;
23716;SDS011;22094;52.130;5.598;2023-02-15T12:42:04;45.45;;;28.58;;
23716;SDS011;22094;52.130;5.598;2023-02-15T12:44:54;48.83;;;29.65;;
23716;SDS011;22094;52.130;5.598;2023-02-15T12:47:20;48.63;;;29.65;;
23716;SDS011;22094;52.130;5.598;2023-02-15T12:50:03;46.38;;;30.65;;
23716;SDS011;22094;52.130;5.598;2023-02-15T12:52:41;45.92;;;29.67;;
23716;SDS011;22094;52.130;5.598;2023-02-15T12:55:16;47.70;;;30.02;;
23716;SDS011;22094;52.130;5.598;2023-02-15T12:58:04;48.47;;;29.83;;
23716;SDS011;22094;52.130;5.598;2023-02-15T13:00:31;47.45;;;30.60;;
23716;SDS011;22094;52.130;5.598;2023-02-15T13:02:57;44.92;;;29.63;;
23716;SDS011;22094;52.130;5.598;2023-02-15T13:05:35;49.17;;;30.50;;
23716;SDS011;22094;52.130;5.598;2023-02-15T13:10:36;47.03;;;29.77;;
23716;SDS011;22094;52.130;5.598;2023-02-15T13:13:22;46.35;;;29.42;;
23716;SDS011;22094;52.130;5.598;2023-02-15T13:16:02;45.22;;;29.77;;
23716;SDS011;22094;52.130;5.598;2023-02-15T13:18:36;50.65;;;30.20;;
23716;SDS011;22094;52.130;5.598;2023-02-15T13:21:12;48.40;;;30.20;;
23716;SDS011;22094;52.130;5.598;2023-02-15T13:23:46;44.58;;;28.65;;
23716;SDS011;22094;52.130;5.598;2023-02-15T13:26:15;51.15;;;30.45;;
23716;SDS011;22094;52.130;5.598;2023-02-15T13:28:48;46.38;;;29.52;;
23716;SDS011;22094;52.130;5.598;2023-02-15T13:31:18;48.47;;;31.70;;
23716;SDS011;22094;52.130;5.598;2023-02-15T13:33:53;49.05;;;30.33;;
23716;SDS011;22094;52.130;5.598;2023-02-15T13:36:37;48.60;;;30.13;;
23716;SDS011;22094;52.130;5.598;2023-02-15T13:50:07;49.08;;;30.98;;
23716;SDS011;22094;52.130;5.598;2023-02-15T13:55:50;51.45;;;32.83;;
23716;SDS011;22094;52.130;5.598;2023-02-15T13:58:36;56.13;;;35.45;;
23716;SDS011;22094;52.130;5.598;2023-02-15T14:04:02;47.75;;;31.48;;
23716;SDS011;22094;52.130;5.598;2023-02-15T14:20:25;48.88;;;31.08;;
23716;SDS011;22094;52.130;5.598;2023-02-15T14:25:45;48.35;;;31.35;;
23716;SDS011;22094;52.130;5.598;2023-02-15T14:28:18;48.72;;;31.73;;
23716;SDS011;22094;52.130;5.598;2023-02-15T14:30:53;50.97;;;31.20;;
23716;SDS011;22094;52.130;5.598;2023-02-15T14:33:33;50.72;;;31.63;;
23716;SDS011;22094;52.130;5.598;2023-02-15T14:36:01;48.83;;;31.92;;
23716;SDS011;22094;52.130;5.598;2023-02-15T14:41:08;51.67;;;31.70;;
23716;SDS011;22094;52.130;5.598;2023-02-15T14:48:58;52.80;;;31.65;;
23716;SDS011;22094;52.130;5.598;2023-02-15T14:54:10;52.35;;;31.50;;
23716;SDS011;22094;52.130;5.598;2023-02-15T14:59:29;49.80;;;31.17;;
23716;SDS011;22094;52.130;5.598;2023-02-15T15:04:45;50.08;;;32.95;;
23716;SDS011;22094;52.130;5.598;2023-02-15T15:12:47;50.15;;;33.08;;
23716;SDS011;22094;52.130;5.598;2023-02-15T15:15:32;52.10;;;33.53;;
23716;SDS011;22094;52.130;5.598;2023-02-15T15:18:06;52.67;;;32.35;;
23716;SDS011;22094;52.130;5.598;2023-02-15T15:20:42;54.10;;;34.67;;
23716;SDS011;22094;52.130;5.598;2023-02-15T15:36:44;57.83;;;33.45;;
23716;SDS011;22094;52.130;5.598;2023-02-15T15:42:12;54.60;;;34.67;;
23716;SDS011;22094;52.130;5.598;2023-02-15T15:49:50;57.50;;;34.97;;
23716;SDS011;22094;52.130;5.598;2023-02-15T15:52:20;56.75;;;35.08;;
23716;SDS011;22094;52.130;5.598;2023-02-15T15:54:48;58.13;;;36.22;;
23716;SDS011;22094;52.130;5.598;2023-02-15T15:57:31;55.80;;;36.05;;
23716;SDS011;22094;52.130;5.598;2023-02-15T16:00:02;58.10;;;36.47;;
23716;SDS011;22094;52.130;5.598;2023-02-15T16:02:30;56.15;;;35.15;;
23716;SDS011;22094;52.130;5.598;2023-02-15T16:05:05;56.35;;;35.65;;
23716;SDS011;22094;52.130;5.598;2023-02-15T16:07:32;61.22;;;37.53;;
23716;SDS011;22094;52.130;5.598;2023-02-15T16:09:59;58.30;;;36.60;;
23716;SDS011;22094;52.130;5.598;2023-02-15T16:12:28;60.42;;;37.47;;
23716;SDS011;22094;52.130;5.598;2023-02-15T16:15:13;64.43;;;37.78;;
23716;SDS011;22094;52.130;5.598;2023-02-15T16:17:41;66.07;;;38.85;;
23716;SDS011;22094;52.130;5.598;2023-02-15T16:22:43;60.80;;;37.60;;
23716;SDS011;22094;52.130;5.598;2023-02-15T16:25:23;63.38;;;38.22;;
23716;SDS011;22094;52.130;5.598;2023-02-15T16:27:54;64.68;;;39.15;;
23716;SDS011;22094;52.130;5.598;2023-02-15T16:30:27;78.68;;;45.03;;
23716;SDS011;22094;52.130;5.598;2023-02-15T16:33:06;74.88;;;44.95;;
23716;SDS011;22094;52.130;5.598;2023-02-15T16:35:54;81.80;;;50.38;;
23716;SDS011;22094;52.130;5.598;2023-02-15T16:38:34;70.75;;;42.50;;
23716;SDS011;22094;52.130;5.598;2023-02-15T16:41:06;74.25;;;43.88;;
23716;SDS011;22094;52.130;5.598;2023-02-15T16:43:34;83.32;;;50.00;;
23716;SDS011;22094;52.130;5.598;2023-02-15T16:46:05;65.43;;;39.72;;
23716;SDS011;22094;52.130;5.598;2023-02-15T16:48:37;68.50;;;40.20;;
23716;SDS011;22094;52.130;5.598;2023-02-15T16:51:06;68.28;;;39.10;;
23716;SDS011;22094;52.130;5.598;2023-02-15T16:53:33;71.03;;;40.25;;
23716;SDS011;22094;52.130;5.598;2023-02-15T16:56:01;63.17;;;38.10;;
23716;SDS011;22094;52.130;5.598;2023-02-15T16:58:41;66.18;;;38.78;;
23716;SDS011;22094;52.130;5.598;2023-02-15T17:01:08;68.28;;;38.67;;
23716;SDS011;22094;52.130;5.598;2023-02-15T17:03:40;64.38;;;38.25;;
23716;SDS011;22094;52.130;5.598;2023-02-15T17:06:23;63.55;;;38.75;;
23716;SDS011;22094;52.130;5.598;2023-02-15T17:08:51;69.47;;;38.17;;
23716;SDS011;22094;52.130;5.598;2023-02-15T17:11:21;77.85;;;41.17;;
23716;SDS011;22094;52.130;5.598;2023-02-15T17:16:31;69.32;;;38.85;;
23716;SDS011;22094;52.130;5.598;2023-02-15T17:19:08;66.75;;;38.90;;
23716;SDS011;22094;52.130;5.598;2023-02-15T17:21:55;63.50;;;38.13;;
23716;SDS011;22094;52.130;5.598;2023-02-15T17:27:07;67.55;;;39.15;;
23716;SDS011;22094;52.130;5.598;2023-02-15T17:29:46;71.18;;;38.70;;
23716;SDS011;22094;52.130;5.598;2023-02-15T17:32:17;70.10;;;38.20;;
23716;SDS011;22094;52.130;5.598;2023-02-15T17:42:51;61.72;;;36.60;;
23716;SDS011;22094;52.130;5.598;2023-02-15T17:45:17;67.80;;;38.88;;
23716;SDS011;22094;52.130;5.598;2023-02-15T17:47:44;72.50;;;39.88;;
23716;SDS011;22094;52.130;5.598;2023-02-15T17:50:22;68.88;;;38.30;;
23716;SDS011;22094;52.130;5.598;2023-02-15T17:52:49;65.13;;;40.08;;
23716;SDS011;22094;52.130;5.598;2023-02-15T17:55:17;70.38;;;39.47;;
23716;SDS011;22094;52.130;5.598;2023-02-15T17:57:59;69.75;;;40.15;;